LEXJ/SDR METAR and TAF weather

Enter ICAO airport designator
Station Type Date Time Source
LEXJ METAR 2023/01/29 19:00 UTC NOAA

LEXJ 291900Z 23002KT 9999 FEW038 BKN050 07/03 Q1031


Station Type Date Time Source
LEXJ Decoded METAR 2023/01/29 19:00 UTC NOAA

Santander / Parayas, Spain (LEXJ) 43-26N 003-49W 9M
Jan 29, 2023 - 02:00 PM EST / 2023.01.29 1900 UTC
Wind: from the SW (230 degrees) at 2 MPH (2 KT):0
Visibility: greater than 7 mile(s):0
Sky conditions: mostly cloudy
Temperature: 44 F (7 C)
Dew Point: 37 F (3 C)
Relative Humidity: 75%
Pressure (altimeter): 30.45 in. Hg (1031 hPa)
ob: LEXJ 291900Z 23002KT 9999 FEW038 BKN050 07/03 Q1031
cycle: 19

Station Type Date Time Source
LEXJ TAF 2023/01/29 15:30 UTC NOAA

TAF LEXJ 291400Z 2915/3015 21006KT 9999 BKN040 TX10/3014Z TN04/3007Z
TEMPO 2915/2916 04010KT
TEMPO 3012/3015 04010KT

Example: see airport list